Time;durP1;ratioP1;P1;durP2;ratioP2;P2;SDS_P1;SDS_P2;PMS_P1;PMS_P2;Temp;Humidity;BMP_temperature;BMP_pressure;BME280_temperature;BME280_humidity;BME280_pressure;Samples;Min_cycle;Max_cycle;Signal;HPM_P1;HPM_P2
2022/12/16 00:02:11;;;;;;;;;;;;;;;-8.98;100.00;100785.34;5068193;28;20373;-63
2022/12/16 00:04:36;;;;;;;;;;;;;;;-8.94;100.00;100786.06;5066756;28;19931;-63
2022/12/16 00:07:01;;;;;;;;;;;;;;;-8.95;100.00;100785.22;5071387;28;20397;-64
2022/12/16 00:09:26;;;;;;;;;;;;;;;-8.96;100.00;100780.13;5068029;28;20019;-63
2022/12/16 00:11:52;;;;;;;;;;;;;;;-9.02;100.00;100789.75;5067696;28;20011;-63
2022/12/16 00:14:17;;;;;;;;;;;;;;;-9.06;100.00;100788.22;5061952;28;19931;-63
2022/12/16 00:16:42;;;;;;;;;;;;;;;-9.08;100.00;100790.00;5069933;28;19920;-63
2022/12/16 00:19:07;;;;;;;;;;;;;;;-9.11;100.00;100777.28;5069976;28;19932;-63
2022/12/16 00:21:33;;;;;;;;;;;;;;;-9.12;100.00;100779.88;5067618;28;19965;-63
2022/12/16 00:23:58;;;;;;;;;;;;;;;-9.11;100.00;100777.28;5066993;28;19975;-63
2022/12/16 00:26:23;;;;;;;;;;;;;;;-9.13;100.00;100784.19;5065804;28;19981;-63
2022/12/16 00:28:49;;;;;;;;;;;;;;;-9.18;100.00;100783.53;5070883;28;19937;-63
2022/12/16 00:31:14;;;;;;;;;;;;;;;-9.23;100.00;100788.00;5070355;28;20275;-63
2022/12/16 00:33:40;;;;;;;;;;;;;;;-9.26;100.00;100785.56;5064815;28;19920;-63
2022/12/16 00:36:06;;;;;;;;;;;;;;;-9.27;100.00;100791.56;5065941;28;20255;-63
2022/12/16 00:38:31;;;;;;;;;;;;;;;-9.23;100.00;100788.00;5070111;28;19928;-62
2022/12/16 00:40:56;;;;;;;;;;;;;;;-9.27;100.00;100800.09;5071167;28;19920;-63
2022/12/16 00:43:22;;;;;;;;;;;;;;;-9.28;100.00;100797.59;5065185;28;19932;-63
2022/12/16 00:45:47;;;;;;;;;;;;;;;-9.29;100.00;100790.78;5065682;28;19928;-63
2022/12/16 00:48:13;;;;;;;;;;;;;;;-9.26;100.00;100794.09;5066246;28;19924;-64
2022/12/16 00:50:38;;;;;;;;;;;;;;;-9.33;100.00;100787.50;5066097;28;19921;-63
2022/12/16 00:53:04;;;;;;;;;;;;;;;-9.31;100.00;100783.16;5063685;28;19927;-63
2022/12/16 00:55:29;;;;;;;;;;;;;;;-9.26;100.00;100793.25;5067488;28;19928;-63
2022/12/16 00:57:54;;;;;;;;;;;;;;;-9.30;100.00;100787.38;5065957;28;20007;-63
2022/12/16 01:00:21;;;;;;;;;;;;;;;-9.34;100.00;100787.56;5066658;28;19927;-63
2022/12/16 01:02:47;;;;;;;;;;;;;;;-9.36;100.00;100784.22;5068869;28;19921;-63
2022/12/16 01:05:13;;;;;;;;;;;;;;;-9.43;100.00;100779.28;5064717;28;19972;-63
2022/12/16 01:07:39;;;;;;;;;;;;;;;-9.44;100.00;100781.94;5064081;28;19927;-63
2022/12/16 01:10:06;;;;;;;;;;;;;;;-9.39;100.00;100784.34;5064574;28;19924;-62
2022/12/16 01:12:31;;;;;;;;;;;;;;;-9.37;100.00;100792.78;5064370;28;20361;-63
2022/12/16 01:14:57;;;;;;;;;;;;;;;-9.41;100.00;100784.38;5064559;28;19928;-63
2022/12/16 01:17:24;;;;;;;;;;;;;;;-9.45;100.00;100788.81;5065099;28;20262;-63
2022/12/16 01:19:50;;;;;;;;;;;;;;;-9.49;100.00;100776.97;5067553;28;19920;-63
2022/12/16 01:22:15;;;;;;;;;;;;;;;-9.52;100.00;100789.09;5065122;28;19932;-62
2022/12/16 01:24:40;;;;;;;;;;;;;;;-9.54;100.00;100794.25;5069567;28;19931;-63
2022/12/16 01:27:06;;;;;;;;;;;;;;;-9.49;100.00;100791.53;5062898;28;19920;-63
2022/12/16 01:29:31;;;;;;;;;;;;;;;-9.48;100.00;100798.31;5065668;28;19928;-64
2022/12/16 01:31:56;;;;;;;;;;;;;;;-9.52;100.00;100800.19;5080652;28;19927;-63
2022/12/16 01:34:22;;;;;;;;;;;;;;;-9.49;100.00;100799.22;5068462;28;20338;-63
2022/12/16 01:36:47;;;;;;;;;;;;;;;-9.41;100.00;100801.53;5069556;28;19927;-63
2022/12/16 01:39:13;;;;;;;;;;;;;;;-9.47;100.00;100797.47;5065345;28;20304;-63
2022/12/16 01:41:38;;;;;;;;;;;;;;;-9.54;100.00;100807.09;5067366;28;19925;-63
2022/12/16 01:44:17;;;;;;;;;;;;;;;-9.60;100.00;100802.19;5065138;28;19920;-63
2022/12/16 01:46:44;;;;;;;;;;;;;;;-9.64;100.00;100808.31;5066199;28;19968;-63
2022/12/16 01:49:16;;;;;;;;;;;;;;;-9.66;100.00;100813.50;5063426;28;20537;-62
2022/12/16 01:51:44;;;;;;;;;;;;;;;-9.62;100.00;100811.66;5065310;28;20157;-63
2022/12/16 01:54:13;;;;;;;;;;;;;;;-9.59;100.00;100821.00;5068248;28;19924;-63
2022/12/16 01:56:40;;;;;;;;;;;;;;;-9.57;100.00;100819.22;5066664;28;20144;-63
2022/12/16 01:59:07;;;;;;;;;;;;;;;-9.64;100.00;100836.56;5069420;28;20385;-63
2022/12/16 02:01:32;;;;;;;;;;;;;;;-9.70;100.00;100847.03;5066470;28;20401;-64
2022/12/16 02:04:00;;;;;;;;;;;;;;;-9.73;100.00;100844.56;5067556;28;19924;-63
2022/12/16 02:06:26;;;;;;;;;;;;;;;-9.71;100.00;100846.19;5065503;28;19964;-63
2022/12/16 02:08:54;;;;;;;;;;;;;;;-9.67;100.00;100852.06;5066847;28;19971;-63
2022/12/16 02:11:38;;;;;;;;;;;;;;;-9.66;100.00;100854.56;5065872;28;19973;-63
2022/12/16 02:14:22;;;;;;;;;;;;;;;-9.73;100.00;100862.53;5067756;28;20389;-62
2022/12/16 02:17:05;;;;;;;;;;;;;;;-9.80;100.00;100869.59;5062503;28;19974;-63
2022/12/16 02:19:49;;;;;;;;;;;;;;;-9.81;100.00;100869.66;5065696;28;19925;-63
2022/12/16 02:22:36;;;;;;;;;;;;;;;-9.81;100.00;100865.34;5064903;28;20293;-63
2022/12/16 02:25:07;;;;;;;;;;;;;;;-9.76;100.00;100867.78;5066471;28;19929;-63
2022/12/16 02:27:52;;;;;;;;;;;;;;;-9.74;100.00;100871.13;5068160;28;19998;-63
2022/12/16 02:30:23;;;;;;;;;;;;;;;-9.72;100.00;100865.06;5059059;28;19928;-63
2022/12/16 02:33:12;;;;;;;;;;;;;;;-9.75;100.00;100866.91;5067705;28;20394;-62
2022/12/16 02:35:55;;;;;;;;;;;;;;;-9.81;100.00;100869.66;5082840;28;19959;-63
2022/12/16 02:38:26;;;;;;;;;;;;;;;-9.87;100.00;100871.53;5066856;28;19921;-63
2022/12/16 02:40:51;;;;;;;;;;;;;;;-9.82;100.00;100879.09;5067962;28;19948;-63
2022/12/16 02:43:30;;;;;;;;;;;;;;;-9.84;100.00;100874.88;5064906;28;19947;-62
2022/12/16 02:45:55;;;;;;;;;;;;;;;-9.88;100.00;100875.00;5068599;28;19928;-63
2022/12/16 02:48:20;;;;;;;;;;;;;;;-9.85;100.00;100875.78;5064356;28;19928;-63
2022/12/16 02:50:48;;;;;;;;;;;;;;;-9.83;100.00;100881.69;5067677;28;20011;-63
2022/12/16 02:53:14;;;;;;;;;;;;;;;-9.80;100.00;100884.19;5067530;28;19921;-62
2022/12/16 02:55:45;;;;;;;;;;;;;;;-9.85;100.00;100883.50;5060756;28;19994;-63
2022/12/16 02:58:18;;;;;;;;;;;;;;;-9.93;100.00;100891.44;5065358;28;20328;-62
2022/12/16 03:00:52;;;;;;;;;;;;;;;-10.03;100.00;100892.63;5066354;28;19928;-63
2022/12/16 03:03:26;;;;;;;;;;;;;;;-10.06;100.00;100892.72;5071436;28;20344;-63
2022/12/16 03:05:53;;;;;;;;;;;;;;;-10.02;100.00;100891.72;5066507;28;19932;-63
2022/12/16 03:08:27;;;;;;;;;;;;;;;-9.99;100.00;100889.06;5068208;28;20015;-63
2022/12/16 03:10:56;;;;;;;;;;;;;;;-10.02;100.00;100891.72;5065869;28;20023;-63
2022/12/16 03:13:22;;;;;;;;;;;;;;;-10.04;100.00;100894.38;5064109;28;20288;-63
2022/12/16 03:15:48;;;;;;;;;;;;;;;-10.04;100.00;100896.94;5070111;28;20015;-63
2022/12/16 03:18:14;;;;;;;;;;;;;;;-10.03;100.00;100895.19;5062816;28;19917;-62
2022/12/16 03:20:44;;;;;;;;;;;;;;;-10.05;100.00;100896.97;5067094;28;19978;-62
2022/12/16 03:23:15;;;;;;;;;;;;;;;-10.08;100.00;100897.91;5058135;28;19925;-63
2022/12/16 03:25:42;;;;;;;;;;;;;;;-10.15;100.00;100904.09;5063897;28;19925;-63
2022/12/16 03:28:19;;;;;;;;;;;;;;;-10.19;100.00;100893.13;5069096;28;19927;-63
2022/12/16 03:30:47;;;;;;;;;;;;;;;-10.16;100.00;100899.88;5064424;28;19920;-63
2022/12/16 03:33:29;;;;;;;;;;;;;;;-10.20;100.00;100893.16;5082069;28;20331;-62
2022/12/16 03:36:00;;;;;;;;;;;;;;;-10.21;100.00;100896.63;5069106;28;19921;-63
2022/12/16 03:38:26;;;;;;;;;;;;;;;-10.17;100.00;100896.47;5069392;28;19956;-63
2022/12/16 03:40:52;;;;;;;;;;;;;;;-10.14;100.00;100898.13;5070458;28;20027;-62
2022/12/16 03:43:17;;;;;;;;;;;;;;;-10.19;100.00;100898.25;5066301;28;20056;-62
2022/12/16 03:45:46;;;;;;;;;;;;;;;-10.24;100.00;100892.44;5065464;28;20028;-63
2022/12/16 03:48:13;;;;;;;;;;;;;;;-10.28;100.00;100890.03;5065659;28;19924;-63
2022/12/16 03:50:38;;;;;;;;;;;;;;;-10.30;100.00;100891.81;5070859;28;19920;-62
2022/12/16 03:53:04;;;;;;;;;;;;;;;-10.30;100.00;100894.38;5063259;28;19929;-63
2022/12/16 03:55:30;;;;;;;;;;;;;;;-10.30;100.00;100894.38;5067067;28;19970;-64
2022/12/16 03:57:56;;;;;;;;;;;;;;;-10.33;100.00;100896.13;5069980;28;19990;-62
2022/12/16 04:00:21;;;;;;;;;;;;;;;-10.36;100.00;100901.38;5068480;28;20703;-63
2022/12/16 04:02:46;;;;;;;;;;;;;;;-10.39;100.00;100900.63;5063790;28;20010;-63
2022/12/16 04:05:12;;;;;;;;;;;;;;;-10.40;100.00;100901.50;5058643;28;20373;-64
2022/12/16 04:07:37;;;;;;;;;;;;;;;-10.41;100.00;100905.78;5072362;28;19927;-62
2022/12/16 04:10:02;;;;;;;;;;;;;;;-10.39;100.00;100909.16;5074518;28;19939;-63
2022/12/16 04:26:10;;;;;;;;;;;;;;;-10.54;100.00;100900.19;5072291;28;20357;-63
2022/12/16 04:28:35;;;;;;;;;;;;;;;-10.53;100.00;100906.19;5072248;28;20007;-63
2022/12/16 04:31:01;;;;;;;;;;;;;;;-10.55;100.00;100907.97;5066493;28;19968;-63
